Time;durP1;ratioP1;P1;durP2;ratioP2;P2;SDS_P1;SDS_P2;PMS_P1;PMS_P2;Temp;Humidity;BMP_temperature;BMP_pressure;BME280_temperature;BME280_humidity;BME280_pressure;Samples;Min_cycle;Max_cycle;Signal;HPM_P1;HPM_P2
2022/11/27 00:02:07;;;;;;;;;;;29.50;92.50;;;;;;5087372;28;19906;-53
2022/11/27 00:04:33;;;;;;;;;;;29.40;92.50;;;;;;5087106;28;24091;-62
2022/11/27 00:06:59;;;;;;;;;;;29.40;92.60;;;;;;5087187;28;25110;-51
2022/11/27 00:09:25;;;;;;;;;;;29.40;92.50;;;;;;5086279;28;24086;-55
2022/11/27 00:11:51;;;;;;;;;;;29.40;92.60;;;;;;5086850;28;19909;-53
2022/11/27 00:14:20;;;;;;;;;;;29.40;92.60;;;;;;5086974;28;19946;-52
2022/11/27 00:16:46;;;;;;;;;;;29.40;92.50;;;;;;5086983;28;19939;-54
2022/11/27 00:19:12;;;;;;;;;;;29.40;92.50;;;;;;5086933;28;19904;-56
2022/11/27 00:21:38;;;;;;;;;;;29.30;92.60;;;;;;5087007;28;24065;-52
2022/11/27 00:24:06;;;;;;;;;;;29.30;92.60;;;;;;5086671;28;24099;-52
2022/11/27 00:26:32;;;;;;;;;;;29.30;92.60;;;;;;5086792;28;19950;-58
2022/11/27 00:28:58;;;;;;;;;;;29.30;92.70;;;;;;5086694;28;20021;-51
2022/11/27 00:31:27;;;;;;;;;;;29.30;92.70;;;;;;5086910;28;20242;-53
2022/11/27 00:33:57;;;;;;;;;;;29.30;92.70;;;;;;5086525;28;19923;-49
2022/11/27 00:36:24;;;;;;;;;;;29.30;92.70;;;;;;5085976;28;24053;-53
2022/11/27 00:38:50;;;;;;;;;;;29.30;92.60;;;;;;5086305;28;20097;-51
2022/11/27 00:41:20;;;;;;;;;;;29.30;92.70;;;;;;5086591;28;24070;-51
2022/11/27 00:43:47;;;;;;;;;;;29.20;92.70;;;;;;5068526;28;24076;-54
2022/11/27 00:46:14;;;;;;;;;;;29.20;92.60;;;;;;5086886;28;19912;-52
2022/11/27 00:48:40;;;;;;;;;;;29.20;92.60;;;;;;5086796;28;24141;-51
2022/11/27 00:51:07;;;;;;;;;;;29.20;92.70;;;;;;5086432;28;24109;-54
2022/11/27 00:53:34;;;;;;;;;;;29.20;92.70;;;;;;5086094;28;24100;-52
2022/11/27 00:56:00;;;;;;;;;;;29.20;93.00;;;;;;5086385;28;19900;-54
2022/11/27 00:58:26;;;;;;;;;;;29.20;92.70;;;;;;5086129;28;19915;-57
2022/11/27 01:00:56;;;;;;;;;;;29.20;92.70;;;;;;5086125;28;19980;-52
2022/11/27 01:03:23;;;;;;;;;;;29.20;92.70;;;;;;5086222;28;19908;-51
2022/11/27 01:05:49;;;;;;;;;;;29.20;92.70;;;;;;5086349;28;19904;-55
2022/11/27 01:08:15;;;;;;;;;;;29.10;92.80;;;;;;5085951;28;19908;-55
2022/11/27 01:11:07;;;;;;;;;;;29.10;92.80;;;;;;5085778;28;19904;-52
2022/11/27 01:13:35;;;;;;;;;;;29.10;92.90;;;;;;5081794;28;19927;-56
2022/11/27 01:16:01;;;;;;;;;;;29.10;92.80;;;;;;5085732;28;24067;-55
2022/11/27 01:18:27;;;;;;;;;;;29.10;92.80;;;;;;5085784;28;19904;-55
2022/11/27 01:20:54;;;;;;;;;;;29.00;92.60;;;;;;5085655;28;24061;-53
2022/11/27 01:23:20;;;;;;;;;;;29.00;92.60;;;;;;5085850;28;19908;-50
2022/11/27 01:25:47;;;;;;;;;;;28.90;92.70;;;;;;5085584;28;20132;-52
2022/11/27 01:28:13;;;;;;;;;;;29.00;92.70;;;;;;5085506;28;24112;-57
2022/11/27 01:30:40;;;;;;;;;;;29.00;92.70;;;;;;5085369;28;19975;-54
2022/11/27 01:33:06;;;;;;;;;;;28.90;92.60;;;;;;5085322;28;19950;-54
2022/11/27 01:35:32;;;;;;;;;;;29.00;92.70;;;;;;5085127;28;24103;-56
2022/11/27 01:37:59;;;;;;;;;;;28.90;92.60;;;;;;5085037;28;19917;-52
2022/11/27 01:40:25;;;;;;;;;;;28.90;92.60;;;;;;5085269;28;20152;-51
2022/11/27 01:42:51;;;;;;;;;;;28.90;92.70;;;;;;5084853;28;24103;-54
2022/11/27 01:45:20;;;;;;;;;;;28.90;92.70;;;;;;5084758;28;24075;-58
2022/11/27 01:47:49;;;;;;;;;;;28.90;92.90;;;;;;5084497;28;19931;-50
2022/11/27 01:50:18;;;;;;;;;;;28.90;92.70;;;;;;5084827;28;20219;-52
2022/11/27 01:52:46;;;;;;;;;;;28.90;92.60;;;;;;5084439;28;24104;-53
2022/11/27 01:55:19;;;;;;;;;;;28.90;92.60;;;;;;5084900;28;19908;-52
2022/11/27 01:57:50;;;;;;;;;;;28.80;92.60;;;;;;5084837;28;19971;-53
2022/11/27 02:00:17;;;;;;;;;;;28.90;92.60;;;;;;5084613;28;19900;-51
2022/11/27 02:02:44;;;;;;;;;;;28.80;92.50;;;;;;5085361;28;20135;-55
2022/11/27 02:05:13;;;;;;;;;;;28.80;92.70;;;;;;5084570;28;20181;-52
2022/11/27 02:07:39;;;;;;;;;;;28.80;92.70;;;;;;5084774;28;24115;-58
2022/11/27 02:10:05;;;;;;;;;;;28.80;92.70;;;;;;5084808;28;20104;-51
2022/11/27 02:13:10;;;;;;;;;;;28.70;92.60;;;;;;5084964;28;24078;-52
2022/11/27 02:15:43;;;;;;;;;;;28.70;92.70;;;;;;5003050;28;24071;-50
2022/11/27 02:18:14;;;;;;;;;;;28.70;92.70;;;;;;5003418;28;24075;-57
2022/11/27 02:20:58;;;;;;;;;;;28.80;92.70;;;;;;5048181;28;19985;-53
2022/11/27 02:23:43;;;;;;;;;;;28.70;92.60;;;;;;5084489;28;20092;-51
2022/11/27 02:26:28;;;;;;;;;;;28.70;92.60;;;;;;5084850;28;19904;-54
2022/11/27 02:28:57;;;;;;;;;;;28.70;92.70;;;;;;5084275;28;19908;-54
2022/11/27 02:31:41;;;;;;;;;;;28.70;92.60;;;;;;5084642;28;19905;-54
2022/11/27 02:34:19;;;;;;;;;;;28.70;92.50;;;;;;5084626;28;24066;-51
2022/11/27 02:36:49;;;;;;;;;;;28.70;92.50;;;;;;5084195;28;19944;-57
2022/11/27 02:39:19;;;;;;;;;;;28.60;92.60;;;;;;5084089;28;19955;-51
2022/11/27 02:41:51;;;;;;;;;;;28.60;92.50;;;;;;5084323;28;19904;-57
2022/11/27 02:44:19;;;;;;;;;;;28.60;92.50;;;;;;5084076;28;19995;-52
2022/11/27 02:46:46;;;;;;;;;;;28.60;92.60;;;;;;5084168;28;20088;-54
2022/11/27 02:49:14;;;;;;;;;;;28.50;92.60;;;;;;5084225;28;20210;-51
2022/11/27 02:51:47;;;;;;;;;;;28.50;92.50;;;;;;5084024;28;19932;-53
2022/11/27 02:54:17;;;;;;;;;;;28.50;92.50;;;;;;5084169;28;19992;-62
2022/11/27 02:56:44;;;;;;;;;;;28.50;92.50;;;;;;5083898;28;24064;-54
2022/11/27 02:59:12;;;;;;;;;;;28.50;92.50;;;;;;5083277;28;19908;-55
2022/11/27 03:01:42;;;;;;;;;;;28.50;92.50;;;;;;5065592;28;24077;-52
2022/11/27 03:04:12;;;;;;;;;;;28.50;92.60;;;;;;5084254;28;19905;-57
2022/11/27 03:06:43;;;;;;;;;;;28.50;92.50;;;;;;5084139;28;20096;-52
2022/11/27 03:09:15;;;;;;;;;;;28.50;92.50;;;;;;5084342;28;19930;-59
2022/11/27 03:11:43;;;;;;;;;;;28.50;92.50;;;;;;5084076;28;19976;-55
2022/11/27 03:14:10;;;;;;;;;;;28.40;92.40;;;;;;5084041;28;19957;-53
2022/11/27 03:16:36;;;;;;;;;;;28.40;92.30;;;;;;5083929;28;19907;-59
2022/11/27 03:19:24;;;;;;;;;;;28.40;92.40;;;;;;5084084;28;19917;-54
2022/11/27 03:21:55;;;;;;;;;;;28.40;92.40;;;;;;5084514;28;19911;-62
2022/11/27 03:24:22;;;;;;;;;;;28.40;92.40;;;;;;5083887;28;19954;-55
2022/11/27 03:26:48;;;;;;;;;;;28.40;92.30;;;;;;5083730;28;20244;-57
2022/11/27 03:29:37;;;;;;;;;;;28.40;92.30;;;;;;5084117;28;19908;-58
2022/11/27 03:32:04;;;;;;;;;;;28.40;92.30;;;;;;5073038;28;19915;-53
2022/11/27 03:34:30;;;;;;;;;;;28.40;92.30;;;;;;5083764;28;19900;-56
2022/11/27 03:36:56;;;;;;;;;;;28.40;92.20;;;;;;5083274;28;19989;-54
2022/11/27 03:39:23;;;;;;;;;;;28.40;92.20;;;;;;5083988;28;20111;-54
2022/11/27 03:41:52;;;;;;;;;;;28.40;92.30;;;;;;5083455;28;19931;-56
2022/11/27 03:44:25;;;;;;;;;;;28.30;92.40;;;;;;5083821;28;19949;-53
2022/11/27 03:47:00;;;;;;;;;;;28.30;92.30;;;;;;5083700;28;20019;-53
2022/11/27 03:49:26;;;;;;;;;;;28.30;92.30;;;;;;5083532;28;19970;-57
2022/11/27 03:51:57;;;;;;;;;;;28.30;92.40;;;;;;5083585;28;19915;-56
2022/11/27 03:54:50;;;;;;;;;;;28.30;92.50;;;;;;5084128;28;19905;-55
2022/11/27 03:57:29;;;;;;;;;;;28.20;92.50;;;;;;5052739;28;19908;-54
2022/11/27 03:59:59;;;;;;;;;;;28.20;92.60;;;;;;5082984;28;24091;-52
2022/11/27 04:02:31;;;;;;;;;;;28.20;92.60;;;;;;5083638;28;19942;-58
2022/11/27 04:04:57;;;;;;;;;;;28.20;92.60;;;;;;5083354;28;20214;-59
2022/11/27 04:07:23;;;;;;;;;;;28.20;92.50;;;;;;5083216;28;20185;-55
2022/11/27 04:09:49;;;;;;;;;;;28.20;92.50;;;;;;5083097;28;20197;-54
2022/11/27 04:12:15;;;;;;;;;;;28.20;92.50;;;;;;5086102;28;19967;-53
2022/11/27 04:14:41;;;;;;;;;;;28.20;92.60;;;;;;5086789;28;19911;-56
2022/11/27 04:17:08;;;;;;;;;;;28.10;92.50;;;;;;5088153;28;19924;-53
2022/11/27 04:19:34;;;;;;;;;;;28.20;92.60;;;;;;5082720;28;24075;-57
2022/11/27 04:22:00;;;;;;;;;;;28.20;92.60;;;;;;5089085;28;20063;-54
2022/11/27 04:24:26;;;;;;;;;;;28.10;92.60;;;;;;5086602;28;19911;-55
2022/11/27 04:26:52;;;;;;;;;;;28.10;92.40;;;;;;5089805;28;19908;-58
2022/11/27 04:29:18;;;;;;;;;;;28.10;92.40;;;;;;5086896;28;20199;-54
2022/11/27 04:31:45;;;;;;;;;;;28.10;92.50;;;;;;5091917;28;19904;-55
2022/11/27 04:34:11;;;;;;;;;;;28.10;92.50;;;;;;5107440;28;19979;-57
2022/11/27 04:36:37;;;;;;;;;;;28.00;92.60;;;;;;5106797;28;19912;-61
2022/11/27 04:39:03;;;;;;;;;;;28.00;92.50;;;;;;5093186;28;19913;-53
2022/11/27 04:41:29;;;;;;;;;;;28.00;92.70;;;;;;5087136;28;20255;-57
2022/11/27 04:43:55;;;;;;;;;;;28.00;92.70;;;;;;5086819;28;19972;-54
2022/11/27 04:46:21;;;;;;;;;;;28.00;92.70;;;;;;5086122;28;19983;-54
2022/11/27 04:48:48;;;;;;;;;;;28.00;92.80;;;;;;5085222;28;19908;-53
2022/11/27 04:51:14;;;;;;;;;;;27.90;92.90;;;;;;5084688;28;19908;-58
2022/11/27 04:53:41;;;;;;;;;;;28.00;92.70;;;;;;5085183;28;19976;-58
2022/11/27 04:56:07;;;;;;;;;;;28.00;92.80;;;;;;5085118;28;19904;-55
2022/11/27 04:58:33;;;;;;;;;;;28.00;92.70;;;;;;5084964;28;19911;-54
2022/11/27 05:00:59;;;;;;;;;;;28.00;92.80;;;;;;5084179;28;19939;-58
2022/11/27 05:03:25;;;;;;;;;;;28.00;92.80;;;;;;5084292;28;20045;-57
2022/11/27 05:05:58;;;;;;;;;;;28.00;92.80;;;;;;5084576;28;20057;-55
2022/11/27 05:08:24;;;;;;;;;;;28.00;92.90;;;;;;5084178;28;19967;-55
2022/11/27 05:10:59;;;;;;;;;;;28.00;92.90;;;;;;5084146;28;20068;-54
2022/11/27 05:13:26;;;;;;;;;;;28.00;92.90;;;;;;5085309;28;19904;-59
2022/11/27 05:15:52;;;;;;;;;;;28.00;93.10;;;;;;5085378;28;19971;-59
2022/11/27 05:18:18;;;;;;;;;;;28.00;93.00;;;;;;5085804;28;24096;-57
2022/11/27 05:20:44;;;;;;;;;;;28.00;93.00;;;;;;5085606;28;24103;-55
2022/11/27 05:23:10;;;;;;;;;;;28.00;92.80;;;;;;5084432;28;19905;-53
2022/11/27 05:25:36;;;;;;;;;;;28.00;92.90;;;;;;5085286;28;20074;-60
2022/11/27 05:28:02;;;;;;;;;;;27.90;92.90;;;;;;5085726;28;19908;-54
2022/11/27 05:30:28;;;;;;;;;;;28.00;92.90;;;;;;5085279;28;20140;-60
2022/11/27 05:32:55;;;;;;;;;;;28.00;93.10;;;;;;5085233;28;19979;-58
2022/11/27 05:35:21;;;;;;;;;;;28.00;93.10;;;;;;5085363;28;19944;-55
2022/11/27 05:37:47;;;;;;;;;;;28.00;93.10;;;;;;5084850;28;19962;-55
2022/11/27 05:40:13;;;;;;;;;;;28.00;93.10;;;;;;5085092;28;19908;-56
2022/11/27 05:42:39;;;;;;;;;;;28.10;93.20;;;;;;5085006;28;19904;-56
2022/11/27 05:45:06;;;;;;;;;;;28.00;93.20;;;;;;5084875;28;24070;-61
2022/11/27 05:47:32;;;;;;;;;;;28.00;93.10;;;;;;5085194;28;19908;-55
2022/11/27 05:49:58;;;;;;;;;;;28.00;93.20;;;;;;5085189;28;19935;-60
2022/11/27 05:52:24;;;;;;;;;;;28.00;93.30;;;;;;5084643;28;20033;-56
2022/11/27 05:54:50;;;;;;;;;;;28.00;93.30;;;;;;5084691;28;25095;-54
2022/11/27 05:57:16;;;;;;;;;;;28.00;93.40;;;;;;5084824;28;19905;-58
2022/11/27 05:59:42;;;;;;;;;;;28.00;93.30;;;;;;5085382;28;20079;-60
2022/11/27 06:02:09;;;;;;;;;;;27.90;93.40;;;;;;5084663;28;20031;-57
2022/11/27 06:04:35;;;;;;;;;;;27.90;93.40;;;;;;5085367;28;19904;-57
2022/11/27 06:07:01;;;;;;;;;;;27.90;93.40;;;;;;5084414;28;19974;-58
2022/11/27 06:09:27;;;;;;;;;;;27.90;93.30;;;;;;5084657;28;20196;-55
2022/11/27 06:11:53;;;;;;;;;;;27.90;93.20;;;;;;5085127;28;19915;-56
2022/11/27 06:14:19;;;;;;;;;;;27.90;93.10;;;;;;5084760;28;20055;-56
2022/11/27 06:16:45;;;;;;;;;;;27.90;92.90;;;;;;5084449;28;19950;-55
2022/11/27 06:19:11;;;;;;;;;;;27.90;92.80;;;;;;5084968;28;19900;-58
2022/11/27 06:21:38;;;;;;;;;;;27.90;92.60;;;;;;5084551;28;19908;-56
2022/11/27 06:24:04;;;;;;;;;;;28.00;92.40;;;;;;5084527;28;19946;-58
2022/11/27 06:26:31;;;;;;;;;;;28.00;92.30;;;;;;5084280;28;19909;-56
2022/11/27 06:28:58;;;;;;;;;;;27.90;92.00;;;;;;5084430;28;19979;-57
2022/11/27 06:31:29;;;;;;;;;;;27.90;91.70;;;;;;5084044;28;19904;-62
2022/11/27 06:33:56;;;;;;;;;;;27.90;91.50;;;;;;5083832;28;19911;-60
2022/11/27 06:36:23;;;;;;;;;;;27.90;91.30;;;;;;5083699;28;19908;-54
2022/11/27 06:38:50;;;;;;;;;;;27.90;91.10;;;;;;5084198;28;20065;-54
2022/11/27 06:41:17;;;;;;;;;;;27.90;91.00;;;;;;5083847;28;19908;-59
2022/11/27 06:43:43;;;;;;;;;;;27.90;91.00;;;;;;5084080;28;19900;-55
2022/11/27 06:46:14;;;;;;;;;;;27.80;90.80;;;;;;5083759;28;19908;-58
2022/11/27 06:48:41;;;;;;;;;;;27.80;90.80;;;;;;5084090;28;19954;-59
2022/11/27 06:51:09;;;;;;;;;;;27.80;90.90;;;;;;5083989;28;19915;-54
2022/11/27 06:53:36;;;;;;;;;;;27.70;90.90;;;;;;5083999;28;19911;-54
2022/11/27 06:56:05;;;;;;;;;;;27.70;91.00;;;;;;5083878;28;19904;-56
2022/11/27 06:58:32;;;;;;;;;;;27.50;91.10;;;;;;5084026;28;20088;-54
2022/11/27 07:00:58;;;;;;;;;;;27.50;91.00;;;;;;5083704;28;19915;-61
2022/11/27 07:03:25;;;;;;;;;;;27.50;91.20;;;;;;5083917;28;19944;-57
2022/11/27 07:05:51;;;;;;;;;;;27.50;91.20;;;;;;5065806;28;19915;-54
2022/11/27 07:08:17;;;;;;;;;;;27.50;91.30;;;;;;5083673;28;19905;-61
2022/11/27 07:10:43;;;;;;;;;;;27.60;91.20;;;;;;5083703;28;19915;-54
2022/11/27 07:13:09;;;;;;;;;;;27.60;91.40;;;;;;5083869;28;19940;-55
2022/11/27 07:15:35;;;;;;;;;;;27.60;91.30;;;;;;5083515;28;19931;-56
2022/11/27 07:18:02;;;;;;;;;;;27.60;91.40;;;;;;5083936;28;19908;-57
2022/11/27 07:20:28;;;;;;;;;;;27.60;91.30;;;;;;5083583;28;19935;-59
2022/11/27 07:22:55;;;;;;;;;;;27.50;91.40;;;;;;5083876;28;19912;-58
2022/11/27 07:25:21;;;;;;;;;;;27.50;91.40;;;;;;5083402;28;24123;-59
2022/11/27 07:27:47;;;;;;;;;;;27.50;91.50;;;;;;5083394;28;19904;-55
2022/11/27 07:30:15;;;;;;;;;;;27.50;91.60;;;;;;5083781;28;19975;-58
2022/11/27 07:32:42;;;;;;;;;;;27.50;91.70;;;;;;5065502;28;20100;-55
2022/11/27 07:35:08;;;;;;;;;;;27.40;91.90;;;;;;5083367;28;24074;-56
2022/11/27 07:37:34;;;;;;;;;;;27.40;92.00;;;;;;5083274;28;20193;-55
2022/11/27 07:40:00;;;;;;;;;;;27.40;91.80;;;;;;5083393;28;20189;-58
2022/11/27 07:42:27;;;;;;;;;;;27.40;91.90;;;;;;5083264;28;19927;-55
2022/11/27 07:44:53;;;;;;;;;;;27.40;91.90;;;;;;5083704;28;19908;-53
2022/11/27 07:47:19;;;;;;;;;;;27.40;91.90;;;;;;5086420;28;20037;-55
2022/11/27 07:49:45;;;;;;;;;;;27.40;91.90;;;;;;5087103;28;20139;-56
2022/11/27 07:52:11;;;;;;;;;;;27.30;91.80;;;;;;5087422;28;19904;-58
2022/11/27 07:54:38;;;;;;;;;;;27.30;91.90;;;;;;5087279;28;19908;-64
2022/11/27 07:57:04;;;;;;;;;;;27.30;91.80;;;;;;5087472;28;20188;-54
2022/11/27 07:59:30;;;;;;;;;;;27.30;91.80;;;;;;5087414;28;19905;-55
2022/11/27 08:01:56;;;;;;;;;;;27.30;91.80;;;;;;5086936;28;20003;-57
2022/11/27 08:04:23;;;;;;;;;;;27.30;91.90;;;;;;5087403;28;24059;-60
2022/11/27 08:06:49;;;;;;;;;;;27.30;91.70;;;;;;5087219;28;19908;-58
2022/11/27 08:09:15;;;;;;;;;;;27.30;91.80;;;;;;5087094;28;19905;-56
2022/11/27 08:11:41;;;;;;;;;;;27.30;91.70;;;;;;5069219;28;25122;-60
2022/11/27 08:14:07;;;;;;;;;;;27.20;91.70;;;;;;5087411;28;19939;-57
2022/11/27 08:16:34;;;;;;;;;;;27.20;91.60;;;;;;5086973;28;19909;-58
2022/11/27 08:19:00;;;;;;;;;;;27.20;91.70;;;;;;5087016;28;19912;-58
2022/11/27 08:21:27;;;;;;;;;;;27.20;91.80;;;;;;5086671;28;19904;-57
2022/11/27 08:23:53;;;;;;;;;;;27.20;91.70;;;;;;5086938;28;19911;-55
2022/11/27 08:26:21;;;;;;;;;;;27.20;91.60;;;;;;5086277;28;20196;-55
2022/11/27 08:28:47;;;;;;;;;;;27.10;91.70;;;;;;5086765;28;19912;-55
2022/11/27 08:31:14;;;;;;;;;;;27.10;91.70;;;;;;5086499;28;19912;-55
2022/11/27 08:33:40;;;;;;;;;;;27.10;91.80;;;;;;5086640;28;19961;-61
2022/11/27 08:36:06;;;;;;;;;;;27.00;91.80;;;;;;5086653;28;19951;-57
2022/11/27 08:38:33;;;;;;;;;;;27.00;91.70;;;;;;5086623;28;19908;-55
2022/11/27 08:41:00;;;;;;;;;;;26.90;91.80;;;;;;5086384;28;19908;-55
2022/11/27 08:43:26;;;;;;;;;;;26.90;91.90;;;;;;5086585;28;19904;-56
2022/11/27 08:45:53;;;;;;;;;;;26.90;92.00;;;;;;5086203;28;19908;-58
2022/11/27 08:48:20;;;;;;;;;;;26.90;91.90;;;;;;5086404;28;20176;-58
2022/11/27 08:50:46;;;;;;;;;;;26.90;91.90;;;;;;5086476;28;19915;-57
2022/11/27 08:53:13;;;;;;;;;;;26.90;92.00;;;;;;5086468;28;20180;-54
2022/11/27 08:55:39;;;;;;;;;;;26.90;92.00;;;;;;5086212;28;19915;-55
2022/11/27 08:58:05;;;;;;;;;;;26.90;92.00;;;;;;5086299;28;19907;-58
2022/11/27 09:00:32;;;;;;;;;;;26.90;91.90;;;;;;5086002;28;24064;-53
2022/11/27 09:02:59;;;;;;;;;;;26.90;91.90;;;;;;5085788;28;19911;-54
2022/11/27 09:05:26;;;;;;;;;;;26.90;91.80;;;;;;5086000;28;19908;-56
2022/11/27 09:07:52;;;;;;;;;;;26.90;91.90;;;;;;5086085;28;19904;-55
2022/11/27 09:10:18;;;;;;;;;;;26.90;91.90;;;;;;5085863;28;20231;-57
2022/11/27 09:12:44;;;;;;;;;;;26.90;91.80;;;;;;5085919;28;19919;-57
2022/11/27 09:15:11;;;;;;;;;;;26.90;91.80;;;;;;5086040;28;19975;-57
2022/11/27 09:17:38;;;;;;;;;;;26.80;91.70;;;;;;5085835;28;20091;-57
2022/11/27 09:20:05;;;;;;;;;;;26.80;91.80;;;;;;5085919;28;19969;-55
2022/11/27 09:22:32;;;;;;;;;;;26.80;91.80;;;;;;5085667;28;19900;-57
2022/11/27 09:24:58;;;;;;;;;;;26.80;91.70;;;;;;5085463;28;19951;-55
2022/11/27 09:27:24;;;;;;;;;;;26.80;91.90;;;;;;5085219;28;20247;-59
2022/11/27 09:29:51;;;;;;;;;;;26.80;91.80;;;;;;5085355;28;19912;-58
2022/11/27 09:32:17;;;;;;;;;;;26.80;91.90;;;;;;5085412;28;19908;-55
2022/11/27 09:34:43;;;;;;;;;;;26.80;91.90;;;;;;5085816;28;24082;-54
2022/11/27 09:37:09;;;;;;;;;;;26.70;91.90;;;;;;5085197;28;19917;-53
2022/11/27 09:39:36;;;;;;;;;;;26.80;92.00;;;;;;5085798;28;19904;-57
2022/11/27 09:42:04;;;;;;;;;;;26.70;92.00;;;;;;5085128;28;19909;-56
2022/11/27 09:44:33;;;;;;;;;;;26.70;91.90;;;;;;5085715;28;24082;-56
2022/11/27 09:47:20;;;;;;;;;;;26.70;92.10;;;;;;5085485;28;20192;-55
2022/11/27 09:50:01;;;;;;;;;;;26.70;92.10;;;;;;5084731;28;24077;-55
2022/11/27 09:52:41;;;;;;;;;;;26.70;92.10;;;;;;5084799;28;19911;-58
2022/11/27 09:55:14;;;;;;;;;;;26.60;92.10;;;;;;5085201;28;19912;-55
2022/11/27 09:57:43;;;;;;;;;;;26.60;92.10;;;;;;5085272;28;19947;-56
2022/11/27 10:00:17;;;;;;;;;;;26.60;92.30;;;;;;5085155;28;19950;-57
2022/11/27 10:02:43;;;;;;;;;;;26.60;92.50;;;;;;5084905;28;19904;-54
2022/11/27 10:05:21;;;;;;;;;;;26.50;92.60;;;;;;5084882;28;19912;-59
2022/11/27 10:07:47;;;;;;;;;;;26.50;92.70;;;;;;5084662;28;19904;-56
2022/11/27 10:10:13;;;;;;;;;;;26.50;92.60;;;;;;5084438;28;20253;-59
2022/11/27 10:12:39;;;;;;;;;;;26.40;92.80;;;;;;5084752;28;19904;-56
2022/11/27 10:15:15;;;;;;;;;;;26.40;92.80;;;;;;5084768;28;19915;-55
2022/11/27 10:17:50;;;;;;;;;;;26.40;92.90;;;;;;5084713;28;19912;-55
2022/11/27 10:20:29;;;;;;;;;;;26.40;92.90;;;;;;5084785;28;19915;-58
2022/11/27 10:23:05;;;;;;;;;;;26.40;93.00;;;;;;5084586;28;19985;-56
2022/11/27 10:25:34;;;;;;;;;;;26.30;92.90;;;;;;5084400;28;19979;-53
2022/11/27 10:28:03;;;;;;;;;;;26.30;93.00;;;;;;5084529;28;19905;-57
2022/11/27 10:30:31;;;;;;;;;;;26.30;92.90;;;;;;5084337;28;19908;-56
2022/11/27 10:32:59;;;;;;;;;;;26.30;92.90;;;;;;5084657;28;20115;-56
2022/11/27 10:35:27;;;;;;;;;;;26.30;93.00;;;;;;5084453;28;19953;-55
2022/11/27 10:37:56;;;;;;;;;;;26.30;93.00;;;;;;5084164;28;19912;-57
2022/11/27 10:40:28;;;;;;;;;;;26.20;93.10;;;;;;5084534;28;19908;-58
2022/11/27 10:42:54;;;;;;;;;;;26.30;93.00;;;;;;5084293;28;19973;-61
2022/11/27 10:45:32;;;;;;;;;;;26.20;92.90;;;;;;5084341;28;19939;-57
2022/11/27 10:47:58;;;;;;;;;;;26.30;92.90;;;;;;5084577;28;19935;-63
2022/11/27 10:50:24;;;;;;;;;;;26.30;93.00;;;;;;5084120;28;20104;-58
2022/11/27 10:52:53;;;;;;;;;;;26.30;92.90;;;;;;5084280;28;19946;-58
2022/11/27 10:55:45;;;;;;;;;;;26.30;92.90;;;;;;5084209;28;19946;-60
2022/11/27 10:58:17;;;;;;;;;;;26.20;92.90;;;;;;5046239;28;19904;-58
2022/11/27 11:00:43;;;;;;;;;;;26.20;93.00;;;;;;5084294;28;19908;-55
2022/11/27 11:03:15;;;;;;;;;;;26.20;93.10;;;;;;5083899;28;20080;-54
2022/11/27 11:05:41;;;;;;;;;;;26.20;93.00;;;;;;5084230;28;19951;-54
2022/11/27 11:08:16;;;;;;;;;;;26.30;92.80;;;;;;5083974;28;19905;-55
2022/11/27 11:10:44;;;;;;;;;;;26.30;92.90;;;;;;5083919;28;19947;-62
2022/11/27 11:13:15;;;;;;;;;;;26.30;92.90;;;;;;5084143;28;19927;-57
2022/11/27 11:15:47;;;;;;;;;;;26.30;92.80;;;;;;5083814;28;19914;-54
2022/11/27 11:18:20;;;;;;;;;;;26.30;92.80;;;;;;5083790;28;19954;-55
2022/11/27 11:20:47;;;;;;;;;;;26.30;92.80;;;;;;5084567;28;19943;-58
2022/11/27 11:23:21;;;;;;;;;;;26.30;92.90;;;;;;5088257;28;19986;-56
2022/11/27 11:25:55;;;;;;;;;;;26.40;92.80;;;;;;5087726;28;24087;-55
2022/11/27 11:28:21;;;;;;;;;;;26.40;92.80;;;;;;5087777;28;19915;-56
2022/11/27 11:31:13;;;;;;;;;;;26.40;92.80;;;;;;5087976;28;19944;-60
2022/11/27 11:33:47;;;;;;;;;;;26.50;92.90;;;;;;5082655;28;20189;-58
2022/11/27 11:36:14;;;;;;;;;;;26.50;92.80;;;;;;5087861;28;19916;-56
2022/11/27 11:38:42;;;;;;;;;;;26.60;92.70;;;;;;5087813;28;19912;-62
2022/11/27 11:41:08;;;;;;;;;;;26.60;92.80;;;;;;5087197;28;19909;-56
2022/11/27 11:43:35;;;;;;;;;;;26.60;92.70;;;;;;5087898;28;19905;-55
2022/11/27 11:46:07;;;;;;;;;;;26.70;92.60;;;;;;5087412;28;24116;-59
2022/11/27 11:48:34;;;;;;;;;;;26.70;92.60;;;;;;5087537;28;20260;-55
2022/11/27 11:51:03;;;;;;;;;;;26.60;92.50;;;;;;5087383;28;19978;-53
2022/11/27 11:53:41;;;;;;;;;;;26.60;92.70;;;;;;5087280;28;19904;-56
2022/11/27 11:56:18;;;;;;;;;;;26.60;92.70;;;;;;5087245;28;19951;-57
2022/11/27 11:58:45;;;;;;;;;;;26.70;92.50;;;;;;5087341;28;19926;-56
2022/11/27 12:01:29;;;;;;;;;;;26.70;92.60;;;;;;5087066;28;20104;-57
2022/11/27 12:03:58;;;;;;;;;;;26.80;92.60;;;;;;5087532;28;19905;-59
2022/11/27 12:06:36;;;;;;;;;;;26.90;92.50;;;;;;5086872;28;19954;-55
2022/11/27 12:09:02;;;;;;;;;;;26.90;92.40;;;;;;5087093;28;24061;-55
2022/11/27 12:11:32;;;;;;;;;;;26.90;92.40;;;;;;5086782;28;19909;-55
2022/11/27 12:14:13;;;;;;;;;;;26.90;92.30;;;;;;5087276;28;24089;-57
2022/11/27 12:17:00;;;;;;;;;;;27.00;92.40;;;;;;5086803;28;19908;-56
2022/11/27 12:19:44;;;;;;;;;;;27.00;92.60;;;;;;5086758;28;19919;-58
2022/11/27 12:22:10;;;;;;;;;;;27.10;92.50;;;;;;5086659;28;19958;-59
2022/11/27 12:24:42;;;;;;;;;;;27.10;92.40;;;;;;5087075;28;19911;-58
2022/11/27 12:27:46;;;;;;;;;;;27.10;92.50;;;;;;5086491;28;19908;-58
2022/11/27 12:30:19;;;;;;;;;;;27.10;92.60;;;;;;5025484;28;19943;-54
2022/11/27 12:33:04;;;;;;;;;;;27.10;92.60;;;;;;5023949;28;19921;-55
2022/11/27 12:35:32;;;;;;;;;;;27.10;92.60;;;;;;5062063;28;19980;-59
2022/11/27 12:38:10;;;;;;;;;;;27.10;92.70;;;;;;5086949;28;20220;-53
2022/11/27 12:40:48;;;;;;;;;;;27.10;92.60;;;;;;5086609;28;19951;-57
2022/11/27 12:43:36;;;;;;;;;;;27.20;92.50;;;;;;5086917;28;19904;-52
2022/11/27 12:46:02;;;;;;;;;;;27.20;92.40;;;;;;5086446;28;19912;-59
2022/11/27 12:48:54;;;;;;;;;;;27.10;92.30;;;;;;5086592;28;19954;-54
2022/11/27 12:51:28;;;;;;;;;;;27.20;92.30;;;;;;5082419;28;20197;-57
2022/11/27 12:53:59;;;;;;;;;;;27.10;92.30;;;;;;5085161;28;19904;-59
2022/11/27 12:56:31;;;;;;;;;;;27.10;92.30;;;;;;5086044;28;20188;-53
2022/11/27 12:59:20;;;;;;;;;;;27.10;92.30;;;;;;5086439;28;19948;-54
2022/11/27 13:01:48;;;;;;;;;;;27.20;92.40;;;;;;5075721;28;19979;-56
2022/11/27 13:04:21;;;;;;;;;;;27.20;92.40;;;;;;5085385;28;19912;-55
2022/11/27 13:06:54;;;;;;;;;;;27.10;92.40;;;;;;5085861;28;24068;-53
2022/11/27 13:09:54;;;;;;;;;;;27.10;92.50;;;;;;5086008;28;19909;-53
2022/11/27 13:12:23;;;;;;;;;;;27.10;92.50;;;;;;5041877;28;19979;-54
2022/11/27 13:15:00;;;;;;;;;;;27.10;92.40;;;;;;5084769;28;19908;-58
2022/11/27 13:17:38;;;;;;;;;;;27.10;92.50;;;;;;5048058;28;20082;-56
2022/11/27 13:20:05;;;;;;;;;;;27.20;92.30;;;;;;5065881;28;20101;-57
2022/11/27 13:22:34;;;;;;;;;;;27.20;92.40;;;;;;5068322;28;20100;-55
2022/11/27 13:25:01;;;;;;;;;;;27.20;92.50;;;;;;5084279;28;19931;-52
2022/11/27 13:27:28;;;;;;;;;;;27.20;92.50;;;;;;5085424;28;19904;-57
2022/11/27 13:30:08;;;;;;;;;;;27.30;92.40;;;;;;5081218;28;20189;-53
2022/11/27 13:32:37;;;;;;;;;;;27.30;92.40;;;;;;5094468;28;24073;-55
2022/11/27 13:35:05;;;;;;;;;;;27.30;92.30;;;;;;5105735;28;19912;-58
2022/11/27 13:37:39;;;;;;;;;;;27.20;92.30;;;;;;5105702;28;19919;-51
2022/11/27 13:40:06;;;;;;;;;;;27.20;92.40;;;;;;5105745;28;19915;-52
2022/11/27 13:42:34;;;;;;;;;;;27.20;92.50;;;;;;5105638;28;19912;-54
2022/11/27 13:45:02;;;;;;;;;;;27.10;92.40;;;;;;5093049;28;19916;-55
2022/11/27 13:47:29;;;;;;;;;;;27.10;92.40;;;;;;5085171;28;19901;-56
2022/11/27 13:50:09;;;;;;;;;;;27.10;92.40;;;;;;5084609;28;20188;-62
2022/11/27 13:52:36;;;;;;;;;;;27.20;92.50;;;;;;5083188;28;19911;-56
2022/11/27 13:55:05;;;;;;;;;;;27.10;92.50;;;;;;5085079;28;19909;-52
2022/11/27 13:57:34;;;;;;;;;;;27.20;92.60;;;;;;5085039;28;19905;-52
2022/11/27 14:00:03;;;;;;;;;;;27.20;92.60;;;;;;5085134;28;19916;-56
2022/11/27 14:02:50;;;;;;;;;;;27.20;92.70;;;;;;5077942;28;19904;-54
2022/11/27 14:05:17;;;;;;;;;;;27.20;92.70;;;;;;5083350;28;19915;-54
2022/11/27 14:07:48;;;;;;;;;;;27.20;92.70;;;;;;5084578;28;19904;-53
2022/11/27 14:10:16;;;;;;;;;;;27.30;92.70;;;;;;5084636;28;20108;-57
2022/11/27 14:12:51;;;;;;;;;;;27.30;92.80;;;;;;5078032;28;19987;-53
2022/11/27 14:15:20;;;;;;;;;;;27.30;92.80;;;;;;5073677;28;20100;-53
2022/11/27 14:17:51;;;;;;;;;;;27.20;92.80;;;;;;5064801;28;20084;-59
2022/11/27 14:20:17;;;;;;;;;;;27.20;92.80;;;;;;5064817;28;19951;-53
2022/11/27 14:22:51;;;;;;;;;;;27.30;92.70;;;;;;5064371;28;24113;-57
2022/11/27 14:25:24;;;;;;;;;;;27.30;92.50;;;;;;5064534;28;20156;-51
2022/11/27 14:27:57;;;;;;;;;;;27.20;92.50;;;;;;5064484;28;19904;-52
2022/11/27 14:30:34;;;;;;;;;;;27.20;92.50;;;;;;5064156;28;24062;-51